sensor_id;sensor_type;location;lat;lon;timestamp;P1;durP1;ratioP1;P2;durP2;ratioP2
41739;SDS011;27422;52.444;13.300;2023-03-01T00:01:23;12.70;;;6.88;;
41739;SDS011;27422;52.444;13.300;2023-03-01T00:03:50;16.13;;;7.65;;
41739;SDS011;27422;52.444;13.300;2023-03-01T00:06:16;17.38;;;8.40;;
41739;SDS011;27422;52.444;13.300;2023-03-01T00:08:42;16.92;;;7.15;;
41739;SDS011;27422;52.444;13.300;2023-03-01T00:13:35;14.35;;;6.78;;
41739;SDS011;27422;52.444;13.300;2023-03-01T00:16:02;14.43;;;7.38;;
41739;SDS011;27422;52.444;13.300;2023-03-01T00:18:29;15.07;;;6.80;;
41739;SDS011;27422;52.444;13.300;2023-03-01T00:20:55;16.80;;;6.60;;
41739;SDS011;27422;52.444;13.300;2023-03-01T00:23:21;12.88;;;6.70;;
41739;SDS011;27422;52.444;13.300;2023-03-01T00:25:47;14.60;;;6.15;;
41739;SDS011;27422;52.444;13.300;2023-03-01T00:28:13;13.27;;;6.38;;
41739;SDS011;27422;52.444;13.300;2023-03-01T00:30:38;11.27;;;5.38;;
41739;SDS011;27422;52.444;13.300;2023-03-01T00:33:04;10.52;;;5.72;;
41739;SDS011;27422;52.444;13.300;2023-03-01T00:35:29;12.45;;;5.68;;
41739;SDS011;27422;52.444;13.300;2023-03-01T00:37:57;12.85;;;5.65;;
41739;SDS011;27422;52.444;13.300;2023-03-01T00:40:23;12.20;;;6.05;;
41739;SDS011;27422;52.444;13.300;2023-03-01T00:42:49;12.33;;;5.67;;
41739;SDS011;27422;52.444;13.300;2023-03-01T00:45:15;15.75;;;6.38;;
41739;SDS011;27422;52.444;13.300;2023-03-01T00:47:40;12.20;;;6.72;;
41739;SDS011;27422;52.444;13.300;2023-03-01T00:50:06;11.88;;;5.93;;
41739;SDS011;27422;52.444;13.300;2023-03-01T00:52:32;15.15;;;5.90;;
41739;SDS011;27422;52.444;13.300;2023-03-01T00:54:57;10.88;;;5.22;;
41739;SDS011;27422;52.444;13.300;2023-03-01T00:57:23;11.30;;;6.03;;
41739;SDS011;27422;52.444;13.300;2023-03-01T00:59:48;10.30;;;5.72;;
41739;SDS011;27422;52.444;13.300;2023-03-01T01:02:14;14.45;;;6.47;;
41739;SDS011;27422;52.444;13.300;2023-03-01T01:04:40;14.52;;;6.10;;
41739;SDS011;27422;52.444;13.300;2023-03-01T01:07:05;11.43;;;5.50;;
41739;SDS011;27422;52.444;13.300;2023-03-01T01:09:31;15.50;;;6.53;;
41739;SDS011;27422;52.444;13.300;2023-03-01T01:11:56;12.95;;;6.22;;
41739;SDS011;27422;52.444;13.300;2023-03-01T01:14:22;13.40;;;5.97;;
41739;SDS011;27422;52.444;13.300;2023-03-01T01:16:47;13.35;;;6.18;;
41739;SDS011;27422;52.444;13.300;2023-03-01T01:19:13;14.52;;;6.78;;
41739;SDS011;27422;52.444;13.300;2023-03-01T01:21:39;15.07;;;6.70;;
41739;SDS011;27422;52.444;13.300;2023-03-01T01:24:08;14.80;;;6.30;;
41739;SDS011;27422;52.444;13.300;2023-03-01T01:26:34;12.68;;;5.90;;
41739;SDS011;27422;52.444;13.300;2023-03-01T01:28:59;15.02;;;6.47;;
41739;SDS011;27422;52.444;13.300;2023-03-01T01:31:26;12.87;;;6.67;;
41739;SDS011;27422;52.444;13.300;2023-03-01T01:33:53;12.75;;;6.35;;
41739;SDS011;27422;52.444;13.300;2023-03-01T01:36:20;16.50;;;6.93;;
41739;SDS011;27422;52.444;13.300;2023-03-01T01:38:45;15.02;;;7.32;;
41739;SDS011;27422;52.444;13.300;2023-03-01T01:41:11;13.27;;;6.95;;
41739;SDS011;27422;52.444;13.300;2023-03-01T01:43:38;15.13;;;7.00;;
41739;SDS011;27422;52.444;13.300;2023-03-01T01:48:46;14.13;;;6.90;;
41739;SDS011;27422;52.444;13.300;2023-03-01T01:51:14;11.77;;;6.53;;
41739;SDS011;27422;52.444;13.300;2023-03-01T01:53:44;14.43;;;6.65;;
41739;SDS011;27422;52.444;13.300;2023-03-01T01:56:11;13.15;;;6.72;;
41739;SDS011;27422;52.444;13.300;2023-03-01T01:58:37;14.20;;;6.97;;
41739;SDS011;27422;52.444;13.300;2023-03-01T02:01:04;14.98;;;6.10;;
41739;SDS011;27422;52.444;13.300;2023-03-01T02:03:31;13.27;;;6.93;;
41739;SDS011;27422;52.444;13.300;2023-03-01T02:08:57;13.25;;;6.90;;
41739;SDS011;27422;52.444;13.300;2023-03-01T02:11:24;13.55;;;6.82;;
41739;SDS011;27422;52.444;13.300;2023-03-01T02:13:50;14.95;;;6.60;;
41739;SDS011;27422;52.444;13.300;2023-03-01T02:16:16;15.15;;;7.05;;
41739;SDS011;27422;52.444;13.300;2023-03-01T02:18:42;12.35;;;6.32;;
41739;SDS011;27422;52.444;13.300;2023-03-01T02:23:37;15.07;;;6.72;;
41739;SDS011;27422;52.444;13.300;2023-03-01T02:26:11;12.18;;;6.10;;
41739;SDS011;27422;52.444;13.300;2023-03-01T02:29:09;14.77;;;6.93;;
41739;SDS011;27422;52.444;13.300;2023-03-01T02:31:34;17.08;;;7.22;;
41739;SDS011;27422;52.444;13.300;2023-03-01T02:34:06;13.88;;;6.80;;
41739;SDS011;27422;52.444;13.300;2023-03-01T02:36:51;15.27;;;6.90;;
41739;SDS011;27422;52.444;13.300;2023-03-01T02:39:20;15.05;;;7.00;;
41739;SDS011;27422;52.444;13.300;2023-03-01T02:41:55;14.23;;;6.82;;
41739;SDS011;27422;52.444;13.300;2023-03-01T02:44:21;13.13;;;6.72;;
41739;SDS011;27422;52.444;13.300;2023-03-01T02:46:48;15.88;;;7.03;;
41739;SDS011;27422;52.444;13.300;2023-03-01T02:49:18;14.38;;;6.88;;
41739;SDS011;27422;52.444;13.300;2023-03-01T02:51:52;13.90;;;6.65;;
41739;SDS011;27422;52.444;13.300;2023-03-01T02:54:41;14.40;;;6.65;;
41739;SDS011;27422;52.444;13.300;2023-03-01T02:57:12;14.73;;;6.68;;
41739;SDS011;27422;52.444;13.300;2023-03-01T02:59:37;13.15;;;6.85;;
41739;SDS011;27422;52.444;13.300;2023-03-01T03:02:08;12.95;;;7.22;;
41739;SDS011;27422;52.444;13.300;2023-03-01T03:04:45;16.45;;;7.07;;
41739;SDS011;27422;52.444;13.300;2023-03-01T03:07:10;13.63;;;7.20;;
41739;SDS011;27422;52.444;13.300;2023-03-01T03:09:36;14.90;;;7.03;;
41739;SDS011;27422;52.444;13.300;2023-03-01T03:12:01;15.93;;;7.07;;
41739;SDS011;27422;52.444;13.300;2023-03-01T03:14:27;14.10;;;7.40;;
41739;SDS011;27422;52.444;13.300;2023-03-01T03:16:59;13.55;;;6.95;;
41739;SDS011;27422;52.444;13.300;2023-03-01T03:19:25;13.65;;;7.00;;
41739;SDS011;27422;52.444;13.300;2023-03-01T03:21:50;13.68;;;7.10;;
41739;SDS011;27422;52.444;13.300;2023-03-01T03:24:16;12.70;;;6.97;;
41739;SDS011;27422;52.444;13.300;2023-03-01T03:26:42;13.85;;;6.25;;
41739;SDS011;27422;52.444;13.300;2023-03-01T03:29:07;14.45;;;6.80;;
41739;SDS011;27422;52.444;13.300;2023-03-01T03:31:33;13.35;;;6.50;;
41739;SDS011;27422;52.444;13.300;2023-03-01T03:33:58;15.65;;;7.03;;
41739;SDS011;27422;52.444;13.300;2023-03-01T03:36:24;20.73;;;7.97;;
41739;SDS011;27422;52.444;13.300;2023-03-01T03:38:50;16.42;;;7.10;;
41739;SDS011;27422;52.444;13.300;2023-03-01T03:41:16;14.70;;;7.05;;
41739;SDS011;27422;52.444;13.300;2023-03-01T03:43:41;12.48;;;6.55;;
41739;SDS011;27422;52.444;13.300;2023-03-01T03:46:09;13.13;;;6.55;;
41739;SDS011;27422;52.444;13.300;2023-03-01T03:48:36;12.27;;;6.60;;
41739;SDS011;27422;52.444;13.300;2023-03-01T03:51:06;14.75;;;6.85;;
41739;SDS011;27422;52.444;13.300;2023-03-01T03:53:32;13.68;;;7.20;;
41739;SDS011;27422;52.444;13.300;2023-03-01T03:55:57;13.52;;;6.60;;
41739;SDS011;27422;52.444;13.300;2023-03-01T03:58:23;13.25;;;6.30;;
41739;SDS011;27422;52.444;13.300;2023-03-01T04:00:53;12.48;;;6.72;;
41739;SDS011;27422;52.444;13.300;2023-03-01T04:03:21;13.25;;;6.45;;
41739;SDS011;27422;52.444;13.300;2023-03-01T04:05:47;11.52;;;6.60;;
41739;SDS011;27422;52.444;13.300;2023-03-01T04:08:14;13.43;;;6.40;;
41739;SDS011;27422;52.444;13.300;2023-03-01T04:10:41;12.55;;;6.53;;
41739;SDS011;27422;52.444;13.300;2023-03-01T04:13:12;15.75;;;7.70;;
41739;SDS011;27422;52.444;13.300;2023-03-01T04:15:39;13.00;;;6.78;;
41739;SDS011;27422;52.444;13.300;2023-03-01T04:18:05;12.10;;;6.05;;
41739;SDS011;27422;52.444;13.300;2023-03-01T04:20:32;16.30;;;7.35;;
41739;SDS011;27422;52.444;13.300;2023-03-01T04:23:06;12.00;;;6.78;;
41739;SDS011;27422;52.444;13.300;2023-03-01T04:25:48;14.40;;;6.93;;
41739;SDS011;27422;52.444;13.300;2023-03-01T04:28:18;12.93;;;6.78;;
41739;SDS011;27422;52.444;13.300;2023-03-01T04:30:45;12.98;;;7.35;;
41739;SDS011;27422;52.444;13.300;2023-03-01T04:33:10;15.13;;;6.85;;
41739;SDS011;27422;52.444;13.300;2023-03-01T04:35:36;16.63;;;6.85;;
41739;SDS011;27422;52.444;13.300;2023-03-01T04:38:02;14.63;;;6.70;;
41739;SDS011;27422;52.444;13.300;2023-03-01T04:40:28;17.35;;;7.68;;
41739;SDS011;27422;52.444;13.300;2023-03-01T04:42:54;14.88;;;6.93;;
41739;SDS011;27422;52.444;13.300;2023-03-01T04:45:19;13.85;;;6.88;;
41739;SDS011;27422;52.444;13.300;2023-03-01T04:47:45;15.18;;;7.45;;
41739;SDS011;27422;52.444;13.300;2023-03-01T04:50:12;13.50;;;7.03;;
41739;SDS011;27422;52.444;13.300;2023-03-01T04:52:39;14.75;;;6.70;;
41739;SDS011;27422;52.444;13.300;2023-03-01T04:55:05;15.07;;;6.28;;
41739;SDS011;27422;52.444;13.300;2023-03-01T04:57:31;12.77;;;6.00;;
41739;SDS011;27422;52.444;13.300;2023-03-01T04:59:57;16.00;;;7.45;;
41739;SDS011;27422;52.444;13.300;2023-03-01T05:02:22;15.35;;;6.85;;
41739;SDS011;27422;52.444;13.300;2023-03-01T05:04:47;14.73;;;6.95;;
41739;SDS011;27422;52.444;13.300;2023-03-01T05:07:13;13.50;;;6.20;;
41739;SDS011;27422;52.444;13.300;2023-03-01T05:09:44;14.65;;;6.47;;
41739;SDS011;27422;52.444;13.300;2023-03-01T05:12:13;18.60;;;6.63;;
41739;SDS011;27422;52.444;13.300;2023-03-01T05:14:38;12.20;;;6.63;;
41739;SDS011;27422;52.444;13.300;2023-03-01T05:17:04;14.85;;;6.72;;
41739;SDS011;27422;52.444;13.300;2023-03-01T05:19:30;15.90;;;6.53;;
41739;SDS011;27422;52.444;13.300;2023-03-01T05:21:56;12.90;;;6.75;;
41739;SDS011;27422;52.444;13.300;2023-03-01T05:24:32;14.15;;;5.75;;
41739;SDS011;27422;52.444;13.300;2023-03-01T05:26:58;14.48;;;6.80;;
41739;SDS011;27422;52.444;13.300;2023-03-01T05:29:24;13.02;;;7.13;;
41739;SDS011;27422;52.444;13.300;2023-03-01T05:31:51;16.27;;;7.00;;
41739;SDS011;27422;52.444;13.300;2023-03-01T05:36:44;13.05;;;5.90;;
41739;SDS011;27422;52.444;13.300;2023-03-01T05:39:09;13.30;;;6.60;;
41739;SDS011;27422;52.444;13.300;2023-03-01T05:41:35;13.32;;;6.65;;
41739;SDS011;27422;52.444;13.300;2023-03-01T05:44:00;14.07;;;6.88;;
41739;SDS011;27422;52.444;13.300;2023-03-01T05:46:25;13.93;;;6.63;;
41739;SDS011;27422;52.444;13.300;2023-03-01T05:48:51;18.25;;;6.78;;
41739;SDS011;27422;52.444;13.300;2023-03-01T05:51:16;13.25;;;6.68;;
41739;SDS011;27422;52.444;13.300;2023-03-01T05:53:42;15.68;;;7.05;;
41739;SDS011;27422;52.444;13.300;2023-03-01T05:56:07;14.88;;;6.93;;
41739;SDS011;27422;52.444;13.300;2023-03-01T05:58:33;13.75;;;6.60;;
41739;SDS011;27422;52.444;13.300;2023-03-01T06:00:58;15.85;;;7.65;;
41739;SDS011;27422;52.444;13.300;2023-03-01T06:03:24;12.88;;;6.88;;
41739;SDS011;27422;52.444;13.300;2023-03-01T06:05:49;15.60;;;7.47;;
41739;SDS011;27422;52.444;13.300;2023-03-01T06:08:14;14.80;;;7.25;;
41739;SDS011;27422;52.444;13.300;2023-03-01T06:10:40;15.85;;;7.07;;
41739;SDS011;27422;52.444;13.300;2023-03-01T06:13:05;18.92;;;7.70;;
41739;SDS011;27422;52.444;13.300;2023-03-01T06:15:31;13.50;;;6.35;;
41739;SDS011;27422;52.444;13.300;2023-03-01T06:17:57;12.30;;;7.05;;
41739;SDS011;27422;52.444;13.300;2023-03-01T06:20:23;15.45;;;6.90;;
41739;SDS011;27422;52.444;13.300;2023-03-01T06:25:16;13.18;;;6.43;;
41739;SDS011;27422;52.444;13.300;2023-03-01T06:27:44;12.52;;;6.43;;
41739;SDS011;27422;52.444;13.300;2023-03-01T06:30:10;12.05;;;6.80;;
41739;SDS011;27422;52.444;13.300;2023-03-01T06:32:38;12.98;;;6.72;;
41739;SDS011;27422;52.444;13.300;2023-03-01T06:35:07;15.43;;;6.22;;
41739;SDS011;27422;52.444;13.300;2023-03-01T06:37:33;14.35;;;6.97;;
41739;SDS011;27422;52.444;13.300;2023-03-01T06:40:00;12.50;;;6.78;;
41739;SDS011;27422;52.444;13.300;2023-03-01T06:42:29;14.13;;;7.05;;
41739;SDS011;27422;52.444;13.300;2023-03-01T06:44:55;14.32;;;7.32;;
41739;SDS011;27422;52.444;13.300;2023-03-01T06:47:20;16.05;;;7.57;;
41739;SDS011;27422;52.444;13.300;2023-03-01T06:49:45;14.98;;;7.57;;
41739;SDS011;27422;52.444;13.300;2023-03-01T06:52:11;13.82;;;7.22;;
41739;SDS011;27422;52.444;13.300;2023-03-01T06:54:36;16.80;;;7.05;;
41739;SDS011;27422;52.444;13.300;2023-03-01T06:57:01;14.95;;;7.35;;
41739;SDS011;27422;52.444;13.300;2023-03-01T06:59:27;14.18;;;7.30;;
41739;SDS011;27422;52.444;13.300;2023-03-01T07:01:52;15.57;;;7.97;;
41739;SDS011;27422;52.444;13.300;2023-03-01T07:04:18;13.15;;;7.13;;
41739;SDS011;27422;52.444;13.300;2023-03-01T07:06:43;13.98;;;7.75;;
41739;SDS011;27422;52.444;13.300;2023-03-01T07:09:08;16.02;;;7.55;;
41739;SDS011;27422;52.444;13.300;2023-03-01T07:11:34;14.70;;;7.78;;
41739;SDS011;27422;52.444;13.300;2023-03-01T07:13:59;15.35;;;7.78;;
41739;SDS011;27422;52.444;13.300;2023-03-01T07:16:25;15.57;;;7.93;;
41739;SDS011;27422;52.444;13.300;2023-03-01T07:18:50;15.82;;;8.07;;
41739;SDS011;27422;52.444;13.300;2023-03-01T07:21:16;16.40;;;8.60;;
41739;SDS011;27422;52.444;13.300;2023-03-01T07:23:41;13.95;;;7.68;;
41739;SDS011;27422;52.444;13.300;2023-03-01T07:26:07;17.10;;;8.05;;
41739;SDS011;27422;52.444;13.300;2023-03-01T07:28:32;16.45;;;8.40;;
41739;SDS011;27422;52.444;13.300;2023-03-01T07:31:03;19.52;;;8.48;;
41739;SDS011;27422;52.444;13.300;2023-03-01T07:33:29;23.98;;;9.60;;
41739;SDS011;27422;52.444;13.300;2023-03-01T07:35:55;19.10;;;9.00;;
41739;SDS011;27422;52.444;13.300;2023-03-01T07:38:25;17.13;;;8.82;;
41739;SDS011;27422;52.444;13.300;2023-03-01T07:40:51;15.68;;;9.40;;
41739;SDS011;27422;52.444;13.300;2023-03-01T07:43:17;18.98;;;9.30;;
41739;SDS011;27422;52.444;13.300;2023-03-01T07:45:42;19.25;;;9.38;;
41739;SDS011;27422;52.444;13.300;2023-03-01T07:48:08;19.80;;;9.57;;
41739;SDS011;27422;52.444;13.300;2023-03-01T07:50:33;15.65;;;8.75;;
41739;SDS011;27422;52.444;13.300;2023-03-01T07:52:59;14.98;;;8.68;;
41739;SDS011;27422;52.444;13.300;2023-03-01T07:55:24;17.30;;;9.18;;
41739;SDS011;27422;52.444;13.300;2023-03-01T07:57:50;17.50;;;8.15;;
41739;SDS011;27422;52.444;13.300;2023-03-01T08:00:15;14.88;;;8.60;;
41739;SDS011;27422;52.444;13.300;2023-03-01T08:02:41;17.48;;;8.23;;
41739;SDS011;27422;52.444;13.300;2023-03-01T08:05:07;15.45;;;7.53;;
41739;SDS011;27422;52.444;13.300;2023-03-01T08:07:34;14.30;;;7.43;;
41739;SDS011;27422;52.444;13.300;2023-03-01T08:09:59;14.45;;;7.07;;
41739;SDS011;27422;52.444;13.300;2023-03-01T08:12:24;10.60;;;6.00;;
41739;SDS011;27422;52.444;13.300;2023-03-01T08:14:52;11.80;;;6.38;;
41739;SDS011;27422;52.444;13.300;2023-03-01T08:17:17;10.63;;;5.93;;
41739;SDS011;27422;52.444;13.300;2023-03-01T08:19:43;10.05;;;5.85;;
41739;SDS011;27422;52.444;13.300;2023-03-01T08:22:08;11.80;;;5.90;;
41739;SDS011;27422;52.444;13.300;2023-03-01T08:24:34;11.35;;;6.40;;
41739;SDS011;27422;52.444;13.300;2023-03-01T08:26:59;10.50;;;6.07;;
41739;SDS011;27422;52.444;13.300;2023-03-01T08:29:24;12.52;;;6.15;;
41739;SDS011;27422;52.444;13.300;2023-03-01T08:31:50;10.80;;;5.80;;
41739;SDS011;27422;52.444;13.300;2023-03-01T08:34:16;10.98;;;6.03;;
41739;SDS011;27422;52.444;13.300;2023-03-01T08:36:43;11.60;;;6.43;;
41739;SDS011;27422;52.444;13.300;2023-03-01T08:39:11;9.88;;;6.10;;
41739;SDS011;27422;52.444;13.300;2023-03-01T08:41:37;10.95;;;5.53;;
41739;SDS011;27422;52.444;13.300;2023-03-01T08:44:03;8.05;;;4.50;;
41739;SDS011;27422;52.444;13.300;2023-03-01T08:46:30;7.43;;;4.20;;
41739;SDS011;27422;52.444;13.300;2023-03-01T08:48:57;7.82;;;4.20;;
41739;SDS011;27422;52.444;13.300;2023-03-01T08:51:23;9.27;;;4.10;;
41739;SDS011;27422;52.444;13.300;2023-03-01T08:53:49;6.35;;;4.00;;
41739;SDS011;27422;52.444;13.300;2023-03-01T08:56:15;6.60;;;3.80;;
41739;SDS011;27422;52.444;13.300;2023-03-01T08:58:48;8.75;;;4.22;;
41739;SDS011;27422;52.444;13.300;2023-03-01T09:01:15;7.20;;;3.95;;
41739;SDS011;27422;52.444;13.300;2023-03-01T09:03:42;6.72;;;3.90;;
41739;SDS011;27422;52.444;13.300;2023-03-01T09:06:08;7.07;;;4.00;;
41739;SDS011;27422;52.444;13.300;2023-03-01T09:08:34;6.97;;;3.65;;
41739;SDS011;27422;52.444;13.300;2023-03-01T09:11:04;6.03;;;3.70;;
41739;SDS011;27422;52.444;13.300;2023-03-01T09:13:31;6.55;;;3.72;;
41739;SDS011;27422;52.444;13.300;2023-03-01T09:15:57;5.97;;;3.50;;
41739;SDS011;27422;52.444;13.300;2023-03-01T09:18:23;6.72;;;3.63;;
41739;SDS011;27422;52.444;13.300;2023-03-01T09:20:49;8.20;;;4.00;;
41739;SDS011;27422;52.444;13.300;2023-03-01T09:23:14;8.35;;;3.40;;
41739;SDS011;27422;52.444;13.300;2023-03-01T09:25:40;6.70;;;3.53;;
41739;SDS011;27422;52.444;13.300;2023-03-01T09:28:05;8.20;;;3.63;;
41739;SDS011;27422;52.444;13.300;2023-03-01T09:30:31;6.90;;;3.40;;
41739;SDS011;27422;52.444;13.300;2023-03-01T09:33:03;8.35;;;3.67;;
41739;SDS011;27422;52.444;13.300;2023-03-01T09:35:28;7.68;;;3.63;;
41739;SDS011;27422;52.444;13.300;2023-03-01T09:37:54;7.18;;;3.42;;
41739;SDS011;27422;52.444;13.300;2023-03-01T09:40:20;6.95;;;3.58;;
41739;SDS011;27422;52.444;13.300;2023-03-01T09:42:50;6.35;;;3.35;;
41739;SDS011;27422;52.444;13.300;2023-03-01T09:45:33;7.75;;;3.13;;
41739;SDS011;27422;52.444;13.300;2023-03-01T09:48:00;8.85;;;3.72;;
41739;SDS011;27422;52.444;13.300;2023-03-01T09:50:26;6.15;;;3.25;;
41739;SDS011;27422;52.444;13.300;2023-03-01T09:55:40;6.47;;;3.38;;
41739;SDS011;27422;52.444;13.300;2023-03-01T10:01:21;7.13;;;2.92;;
41739;SDS011;27422;52.444;13.300;2023-03-01T10:06:21;7.10;;;3.20;;
41739;SDS011;27422;52.444;13.300;2023-03-01T10:08:53;7.57;;;3.42;;
41739;SDS011;27422;52.444;13.300;2023-03-01T10:11:27;6.78;;;3.10;;
41739;SDS011;27422;52.444;13.300;2023-03-01T10:14:43;6.45;;;3.20;;
41739;SDS011;27422;52.444;13.300;2023-03-01T10:22:05;6.53;;;2.95;;
41739;SDS011;27422;52.444;13.300;2023-03-01T10:24:46;7.15;;;3.00;;
41739;SDS011;27422;52.444;13.300;2023-03-01T10:27:22;9.35;;;2.78;;
41739;SDS011;27422;52.444;13.300;2023-03-01T10:32:36;7.10;;;3.05;;
41739;SDS011;27422;52.444;13.300;2023-03-01T10:35:15;5.90;;;3.00;;
41739;SDS011;27422;52.444;13.300;2023-03-01T10:40:29;5.45;;;2.45;;
41739;SDS011;27422;52.444;13.300;2023-03-01T10:42:57;6.45;;;2.50;;
41739;SDS011;27422;52.444;13.300;2023-03-01T10:50:45;6.03;;;2.60;;
41739;SDS011;27422;52.444;13.300;2023-03-01T10:53:32;5.40;;;2.65;;
41739;SDS011;27422;52.444;13.300;2023-03-01T10:56:07;5.95;;;2.75;;
41739;SDS011;27422;52.444;13.300;2023-03-01T10:58:33;4.95;;;2.70;;
41739;SDS011;27422;52.444;13.300;2023-03-01T11:01:01;7.05;;;2.88;;
41739;SDS011;27422;52.444;13.300;2023-03-01T11:03:41;6.60;;;2.95;;
41739;SDS011;27422;52.444;13.300;2023-03-01T11:08:37;7.07;;;2.72;;
41739;SDS011;27422;52.444;13.300;2023-03-01T11:11:05;6.28;;;2.78;;
41739;SDS011;27422;52.444;13.300;2023-03-01T11:13:47;6.68;;;2.90;;
41739;SDS011;27422;52.444;13.300;2023-03-01T11:16:16;6.80;;;2.92;;
41739;SDS011;27422;52.444;13.300;2023-03-01T11:18:55;8.18;;;2.80;;
41739;SDS011;27422;52.444;13.300;2023-03-01T11:21:21;6.57;;;2.55;;
41739;SDS011;27422;52.444;13.300;2023-03-01T11:23:47;8.73;;;3.25;;
41739;SDS011;27422;52.444;13.300;2023-03-01T11:26:12;6.82;;;2.70;;
41739;SDS011;27422;52.444;13.300;2023-03-01T11:28:39;6.47;;;2.75;;
41739;SDS011;27422;52.444;13.300;2023-03-01T11:31:06;6.78;;;2.75;;
41739;SDS011;27422;52.444;13.300;2023-03-01T11:41:43;5.30;;;2.30;;
41739;SDS011;27422;52.444;13.300;2023-03-01T11:57:34;7.00;;;3.15;;
41739;SDS011;27422;52.444;13.300;2023-03-01T12:03:28;5.65;;;3.08;;
41739;SDS011;27422;52.444;13.300;2023-03-01T12:08:38;6.70;;;3.50;;
41739;SDS011;27422;52.444;13.300;2023-03-01T12:19:53;6.20;;;3.25;;
41739;SDS011;27422;52.444;13.300;2023-03-01T12:27:53;6.22;;;3.22;;
41739;SDS011;27422;52.444;13.300;2023-03-01T12:30:31;7.95;;;3.40;;
41739;SDS011;27422;52.444;13.300;2023-03-01T12:52:48;5.82;;;2.50;;
41739;SDS011;27422;52.444;13.300;2023-03-01T12:55:27;4.40;;;2.10;;
41739;SDS011;27422;52.444;13.300;2023-03-01T13:03:40;4.97;;;1.80;;
41739;SDS011;27422;52.444;13.300;2023-03-01T13:06:19;4.13;;;1.90;;
41739;SDS011;27422;52.444;13.300;2023-03-01T13:08:51;4.53;;;1.70;;
41739;SDS011;27422;52.444;13.300;2023-03-01T13:11:25;3.83;;;1.80;;
41739;SDS011;27422;52.444;13.300;2023-03-01T13:13:52;4.70;;;2.00;;
41739;SDS011;27422;52.444;13.300;2023-03-01T13:17:03;6.20;;;2.30;;
41739;SDS011;27422;52.444;13.300;2023-03-01T13:19:29;4.72;;;1.80;;
41739;SDS011;27422;52.444;13.300;2023-03-01T13:21:56;5.28;;;2.30;;
41739;SDS011;27422;52.444;13.300;2023-03-01T13:24:40;6.20;;;1.90;;
41739;SDS011;27422;52.444;13.300;2023-03-01T13:32:34;4.68;;;1.90;;
41739;SDS011;27422;52.444;13.300;2023-03-01T13:37:40;4.38;;;2.15;;
41739;SDS011;27422;52.444;13.300;2023-03-01T13:42:44;5.25;;;2.15;;
41739;SDS011;27422;52.444;13.300;2023-03-01T13:48:01;5.70;;;2.10;;
41739;SDS011;27422;52.444;13.300;2023-03-01T13:50:32;3.90;;;2.03;;
41739;SDS011;27422;52.444;13.300;2023-03-01T13:53:02;6.65;;;2.20;;
41739;SDS011;27422;52.444;13.300;2023-03-01T13:55:42;6.82;;;2.22;;
41739;SDS011;27422;52.444;13.300;2023-03-01T13:58:23;4.32;;;2.33;;
41739;SDS011;27422;52.444;13.300;2023-03-01T14:03:29;5.60;;;2.00;;
41739;SDS011;27422;52.444;13.300;2023-03-01T14:06:07;4.90;;;1.58;;
41739;SDS011;27422;52.444;13.300;2023-03-01T14:08:36;4.63;;;2.38;;
41739;SDS011;27422;52.444;13.300;2023-03-01T14:14:10;5.82;;;2.03;;
41739;SDS011;27422;52.444;13.300;2023-03-01T14:19:25;10.20;;;2.60;;
41739;SDS011;27422;52.444;13.300;2023-03-01T14:21:58;11.10;;;2.30;;
41739;SDS011;27422;52.444;13.300;2023-03-01T14:24:28;5.18;;;2.35;;
41739;SDS011;27422;52.444;13.300;2023-03-01T14:26:54;4.95;;;2.10;;
41739;SDS011;27422;52.444;13.300;2023-03-01T14:29:23;7.03;;;2.15;;
41739;SDS011;27422;52.444;13.300;2023-03-01T14:31:52;5.60;;;2.22;;
41739;SDS011;27422;52.444;13.300;2023-03-01T14:34:21;4.85;;;2.22;;
41739;SDS011;27422;52.444;13.300;2023-03-01T14:36:48;5.28;;;2.53;;
41739;SDS011;27422;52.444;13.300;2023-03-01T14:39:18;7.57;;;2.13;;
41739;SDS011;27422;52.444;13.300;2023-03-01T14:41:45;4.13;;;1.80;;
41739;SDS011;27422;52.444;13.300;2023-03-01T14:44:21;5.18;;;1.95;;
41739;SDS011;27422;52.444;13.300;2023-03-01T14:46:51;3.83;;;1.52;;
41739;SDS011;27422;52.444;13.300;2023-03-01T14:49:21;5.15;;;1.98;;
41739;SDS011;27422;52.444;13.300;2023-03-01T14:51:51;4.78;;;1.90;;
41739;SDS011;27422;52.444;13.300;2023-03-01T14:54:26;4.43;;;1.92;;
41739;SDS011;27422;52.444;13.300;2023-03-01T14:56:58;4.70;;;1.90;;
41739;SDS011;27422;52.444;13.300;2023-03-01T14:59:24;4.50;;;2.20;;
41739;SDS011;27422;52.444;13.300;2023-03-01T15:01:50;5.28;;;2.13;;
41739;SDS011;27422;52.444;13.300;2023-03-01T15:04:17;4.50;;;1.90;;
41739;SDS011;27422;52.444;13.300;2023-03-01T15:06:43;4.30;;;1.98;;
41739;SDS011;27422;52.444;13.300;2023-03-01T15:09:13;4.53;;;1.98;;
41739;SDS011;27422;52.444;13.300;2023-03-01T15:11:41;3.97;;;1.63;;
41739;SDS011;27422;52.444;13.300;2023-03-01T15:14:28;3.95;;;1.70;;
41739;SDS011;27422;52.444;13.300;2023-03-01T15:20:13;4.38;;;1.80;;
41739;SDS011;27422;52.444;13.300;2023-03-01T15:22:43;4.00;;;1.75;;
41739;SDS011;27422;52.444;13.300;2023-03-01T15:25:16;4.40;;;1.65;;
41739;SDS011;27422;52.444;13.300;2023-03-01T15:27:46;5.05;;;1.63;;
41739;SDS011;27422;52.444;13.300;2023-03-01T15:30:17;5.00;;;1.77;;
41739;SDS011;27422;52.444;13.300;2023-03-01T15:32:45;5.70;;;2.28;;
41739;SDS011;27422;52.444;13.300;2023-03-01T15:38:23;5.32;;;1.83;;
41739;SDS011;27422;52.444;13.300;2023-03-01T15:40:50;4.80;;;2.00;;
41739;SDS011;27422;52.444;13.300;2023-03-01T15:46:20;4.13;;;1.63;;
41739;SDS011;27422;52.444;13.300;2023-03-01T15:49:01;6.15;;;1.98;;
41739;SDS011;27422;52.444;13.300;2023-03-01T15:51:34;4.65;;;1.95;;
41739;SDS011;27422;52.444;13.300;2023-03-01T15:54:03;4.47;;;2.40;;
41739;SDS011;27422;52.444;13.300;2023-03-01T15:56:30;4.35;;;1.67;;
41739;SDS011;27422;52.444;13.300;2023-03-01T15:58:59;5.00;;;1.50;;
41739;SDS011;27422;52.444;13.300;2023-03-01T16:01:26;4.38;;;1.75;;
41739;SDS011;27422;52.444;13.300;2023-03-01T16:03:52;5.15;;;1.67;;
41739;SDS011;27422;52.444;13.300;2023-03-01T16:06:21;4.70;;;1.77;;
41739;SDS011;27422;52.444;13.300;2023-03-01T16:08:46;5.63;;;2.33;;
41739;SDS011;27422;52.444;13.300;2023-03-01T16:11:16;6.32;;;2.92;;
41739;SDS011;27422;52.444;13.300;2023-03-01T16:13:43;6.45;;;3.08;;
41739;SDS011;27422;52.444;13.300;2023-03-01T16:16:10;5.43;;;1.85;;
41739;SDS011;27422;52.444;13.300;2023-03-01T16:18:39;5.55;;;1.70;;
41739;SDS011;27422;52.444;13.300;2023-03-01T16:21:05;4.15;;;1.85;;
41739;SDS011;27422;52.444;13.300;2023-03-01T16:23:31;5.18;;;1.75;;
41739;SDS011;27422;52.444;13.300;2023-03-01T16:25:59;5.53;;;1.63;;
41739;SDS011;27422;52.444;13.300;2023-03-01T16:28:25;5.22;;;2.00;;
41739;SDS011;27422;52.444;13.300;2023-03-01T16:30:51;12.70;;;4.57;;
41739;SDS011;27422;52.444;13.300;2023-03-01T16:33:16;7.70;;;2.90;;
41739;SDS011;27422;52.444;13.300;2023-03-01T16:35:42;5.78;;;2.30;;
41739;SDS011;27422;52.444;13.300;2023-03-01T16:38:09;5.78;;;2.25;;
41739;SDS011;27422;52.444;13.300;2023-03-01T16:40:34;5.03;;;2.10;;
41739;SDS011;27422;52.444;13.300;2023-03-01T16:43:00;6.43;;;1.90;;
41739;SDS011;27422;52.444;13.300;2023-03-01T16:45:27;4.80;;;1.92;;
41739;SDS011;27422;52.444;13.300;2023-03-01T16:47:53;5.80;;;2.05;;
41739;SDS011;27422;52.444;13.300;2023-03-01T16:50:18;4.32;;;1.73;;
41739;SDS011;27422;52.444;13.300;2023-03-01T16:52:44;5.80;;;1.98;;